createdAt,value
2019-05-28T00:01:14.699Z,1.20
2019-05-28T00:03:43.901Z,1.30
2019-05-28T00:06:13.099Z,1.60
2019-05-28T00:08:42.324Z,1.30
2019-05-28T00:11:11.541Z,1.50
2019-05-28T00:13:40.787Z,1.20
2019-05-28T00:16:10.321Z,0.90
2019-05-28T00:18:39.544Z,1.60
2019-05-28T00:21:08.772Z,1.52
2019-05-28T00:23:37.948Z,1.82
2019-05-28T00:26:07.165Z,1.50
2019-05-28T00:28:36.349Z,1.15
2019-05-28T00:31:05.549Z,1.30
2019-05-28T00:33:34.775Z,1.73
2019-05-28T00:36:03.987Z,1.55
2019-05-28T00:38:33.220Z,1.30
2019-05-28T00:41:02.490Z,1.30
2019-05-28T00:43:31.725Z,1.70
2019-05-28T00:46:00.908Z,1.70
2019-05-28T00:48:30.133Z,1.67
2019-05-28T00:50:59.295Z,1.90
2019-05-28T00:53:28.554Z,1.50
2019-05-28T00:55:58.782Z,1.45
2019-05-28T00:58:28.611Z,1.67
2019-05-28T01:00:57.963Z,1.60
2019-05-28T01:03:27.202Z,1.72
2019-05-28T01:05:56.413Z,1.82
2019-05-28T01:08:25.593Z,1.47
2019-05-28T01:10:54.812Z,1.70
2019-05-28T01:13:24.049Z,2.00
2019-05-28T01:15:53.244Z,2.42
2019-05-28T01:18:22.493Z,2.67
2019-05-28T01:20:51.758Z,2.77
2019-05-28T01:23:20.954Z,3.00
2019-05-28T01:25:50.164Z,2.22
2019-05-28T01:28:19.380Z,1.87
2019-05-28T01:30:56.244Z,2.00
2019-05-28T01:33:19.584Z,2.25
2019-05-28T01:35:48.996Z,2.22
2019-05-28T01:38:18.172Z,3.47
2019-05-28T01:40:47.459Z,3.90
2019-05-28T01:43:16.669Z,2.90
2019-05-28T01:45:45.919Z,2.37
2019-05-28T01:48:15.091Z,2.83
2019-05-28T01:50:44.286Z,3.30
2019-05-28T01:53:13.514Z,2.75
2019-05-28T01:55:42.802Z,2.30
2019-05-28T01:58:11.995Z,1.90
2019-05-28T02:00:41.275Z,2.60
2019-05-28T02:03:10.493Z,3.05
2019-05-28T02:05:39.647Z,2.58
2019-05-28T02:08:08.951Z,3.08
2019-05-28T02:10:38.139Z,2.70
2019-05-28T02:13:07.316Z,2.92
2019-05-28T02:15:36.597Z,2.90
2019-05-28T02:18:05.842Z,3.33
2019-05-28T02:20:34.996Z,3.70
2019-05-28T02:23:05.596Z,4.00
2019-05-28T02:25:34.754Z,4.10
2019-05-28T02:28:03.945Z,4.60
2019-05-28T02:30:33.096Z,5.50
2019-05-28T02:33:02.362Z,5.30
2019-05-28T02:35:31.535Z,4.80
2019-05-28T02:38:00.820Z,6.20
2019-05-28T02:40:29.932Z,6.25
2019-05-28T02:42:59.350Z,5.53
2019-05-28T02:45:28.634Z,6.45
2019-05-28T02:47:57.892Z,5.12
2019-05-28T02:50:47.370Z,7.05
2019-05-28T02:53:16.647Z,7.73
2019-05-28T02:55:47.717Z,5.35
2019-05-28T02:58:19.753Z,8.20
2019-05-28T03:00:50.399Z,8.40
2019-05-28T03:03:22.955Z,8.50
2019-05-28T03:05:54.733Z,8.05
2019-05-28T03:08:26.247Z,8.28
2019-05-28T03:11:03.121Z,8.08
2019-05-28T03:13:27.031Z,7.10
2019-05-28T03:15:59.475Z,8.88
2019-05-28T03:18:30.272Z,8.25
2019-05-28T03:21:02.456Z,9.37
2019-05-28T03:23:33.692Z,9.05
2019-05-28T03:26:02.947Z,11.65
2019-05-28T03:28:32.630Z,10.78
2019-05-28T03:31:01.914Z,11.22
2019-05-28T03:33:31.271Z,8.95
2019-05-28T03:36:01.894Z,9.38
2019-05-28T03:38:32.674Z,11.75
2019-05-28T03:41:01.918Z,11.80
2019-05-28T03:43:31.102Z,10.50
2019-05-28T03:46:00.442Z,9.25
2019-05-28T03:48:29.742Z,9.70
2019-05-28T03:50:58.969Z,9.58
2019-05-28T03:53:28.171Z,10.00
2019-05-28T03:55:57.442Z,10.03
2019-05-28T03:58:26.610Z,11.12
2019-05-28T04:00:55.829Z,9.03
2019-05-28T04:03:25.012Z,11.18
2019-05-28T04:05:54.237Z,12.80
2019-05-28T04:08:23.459Z,10.65
2019-05-28T04:10:52.672Z,14.05
2019-05-28T04:13:21.855Z,13.90
2019-05-28T04:15:51.058Z,13.13
2019-05-28T04:18:20.246Z,11.30
2019-05-28T04:20:49.521Z,14.15
2019-05-28T04:23:18.930Z,13.50
2019-05-28T04:25:48.184Z,13.83
2019-05-28T04:28:17.426Z,11.03
2019-05-28T04:30:46.645Z,10.28
2019-05-28T04:33:15.820Z,10.50
2019-05-28T04:35:45.085Z,11.15
2019-05-28T04:38:14.302Z,10.23
2019-05-28T04:40:43.545Z,7.87
2019-05-28T04:43:12.792Z,5.80
2019-05-28T04:45:42.062Z,5.72
2019-05-28T04:48:11.309Z,4.87
2019-05-28T04:50:40.550Z,4.53
2019-05-28T04:53:09.827Z,4.05
2019-05-28T04:55:39.197Z,4.67
2019-05-28T04:58:08.503Z,4.47
2019-05-28T05:00:37.856Z,4.80
2019-05-28T05:03:07.088Z,4.00
2019-05-28T05:05:36.353Z,4.08
2019-05-28T05:08:05.577Z,3.67
2019-05-28T05:10:34.826Z,3.27
2019-05-28T05:13:04.031Z,3.00
2019-05-28T05:15:33.440Z,2.37
2019-05-28T05:18:02.817Z,2.70
2019-05-28T05:20:31.996Z,2.17
2019-05-28T05:23:01.212Z,2.50
2019-05-28T05:25:30.436Z,2.33
2019-05-28T05:27:59.629Z,2.37
2019-05-28T05:30:28.835Z,2.52
2019-05-28T05:33:18.277Z,1.87
2019-05-28T05:35:29.058Z,2.40
2019-05-28T05:37:58.331Z,2.10
2019-05-28T05:40:27.771Z,1.80
2019-05-28T05:42:56.991Z,2.23
2019-05-28T05:45:26.184Z,2.08
2019-05-28T05:47:55.412Z,1.92
2019-05-28T05:50:24.587Z,1.90
2019-05-28T05:52:53.786Z,1.80
2019-05-28T05:55:22.960Z,2.62
2019-05-28T05:57:52.180Z,2.20
2019-05-28T06:00:22.196Z,2.25
2019-05-28T06:02:51.425Z,2.20
2019-05-28T06:05:20.685Z,2.57
2019-05-28T06:07:49.952Z,2.77
2019-05-28T06:10:19.233Z,2.47
2019-05-28T06:12:48.457Z,2.12
2019-05-28T06:15:17.653Z,2.15
2019-05-28T06:17:46.829Z,2.60
2019-05-28T06:20:16.381Z,2.47
2019-05-28T06:22:45.592Z,2.60
2019-05-28T06:25:14.928Z,3.00
2019-05-28T06:27:44.133Z,2.72
2019-05-28T06:30:13.943Z,2.70
2019-05-28T06:32:43.129Z,3.00
2019-05-28T06:35:12.562Z,3.40
2019-05-28T06:37:41.760Z,3.62
2019-05-28T06:40:11.190Z,3.60
2019-05-28T06:42:40.677Z,3.80
2019-05-28T06:45:10.047Z,2.90
2019-05-28T06:47:43.888Z,3.20
2019-05-28T06:50:12.237Z,2.80
2019-05-28T06:52:41.901Z,2.90
2019-05-28T06:55:11.316Z,2.33
2019-05-28T06:57:40.524Z,3.05
2019-05-28T07:00:10.362Z,3.17
2019-05-28T07:02:39.601Z,4.15
2019-05-28T07:05:09.170Z,4.10
2019-05-28T07:07:38.416Z,4.20
2019-05-28T07:10:08.205Z,3.50
2019-05-28T07:12:37.452Z,3.20
2019-05-28T07:15:07.602Z,3.47
2019-05-28T07:17:36.800Z,3.50
2019-05-28T07:20:06.785Z,3.55
2019-05-28T07:22:36.120Z,3.62
2019-05-28T07:25:05.614Z,4.47
2019-05-28T07:27:34.846Z,3.47
2019-05-28T07:30:04.318Z,4.50
2019-05-28T07:32:33.551Z,5.40
2019-05-28T07:35:03.107Z,4.55
2019-05-28T07:37:32.457Z,5.70
2019-05-28T07:40:01.688Z,5.12
2019-05-28T07:42:33.063Z,5.45
2019-05-28T07:45:02.210Z,6.62
2019-05-28T07:47:31.545Z,4.90
2019-05-28T07:50:00.721Z,4.75
2019-05-28T07:52:29.972Z,3.90
2019-05-28T07:54:59.213Z,3.85
2019-05-28T07:57:28.457Z,4.93
2019-05-28T07:59:57.699Z,6.10
2019-05-28T08:02:26.950Z,6.55
2019-05-28T08:04:56.150Z,5.40
2019-05-28T08:07:25.450Z,6.20
2019-05-28T08:09:54.622Z,6.92
2019-05-28T08:12:23.826Z,6.80
2019-05-28T08:14:53.032Z,5.28
2019-05-28T08:17:22.240Z,5.30
2019-05-28T08:19:51.442Z,5.25
2019-05-28T08:22:20.655Z,4.53
2019-05-28T08:24:49.882Z,4.62
2019-05-28T08:27:19.176Z,5.33
2019-05-28T08:29:48.355Z,5.50
2019-05-28T08:32:17.622Z,6.10
2019-05-28T08:35:02.139Z,5.60
2019-05-28T08:37:17.862Z,7.08
2019-05-28T08:39:47.052Z,6.67
2019-05-28T08:42:16.261Z,6.72
2019-05-28T08:44:45.515Z,5.35
2019-05-28T08:47:14.780Z,7.00
2019-05-28T08:49:44.013Z,5.30
2019-05-28T08:52:13.204Z,3.93
2019-05-28T08:54:42.421Z,3.03
2019-05-28T08:57:11.598Z,2.83
2019-05-28T08:59:40.796Z,2.57
2019-05-28T09:02:26.315Z,2.67
2019-05-28T09:04:41.174Z,2.37
2019-05-28T09:07:10.355Z,2.40
2019-05-28T09:09:39.575Z,2.67
2019-05-28T09:12:09.719Z,2.40
2019-05-28T09:14:54.984Z,2.10
2019-05-28T09:17:10.107Z,2.23
2019-05-28T09:19:39.381Z,2.20
2019-05-28T09:22:24.419Z,1.87
2019-05-28T09:24:39.717Z,1.60
2019-05-28T09:27:09.002Z,1.63
2019-05-28T09:29:38.244Z,1.30
2019-05-28T09:32:07.578Z,1.40
2019-05-28T09:34:36.776Z,1.80
2019-05-28T09:37:05.952Z,1.60
2019-05-28T09:39:35.257Z,1.60
2019-05-28T09:42:04.597Z,1.30
2019-05-28T09:44:33.806Z,1.53
2019-05-28T09:47:03.041Z,1.40
2019-05-28T09:49:32.243Z,1.00
2019-05-28T09:52:01.447Z,1.43
2019-05-28T09:54:30.709Z,1.20
2019-05-28T09:56:59.897Z,1.40
2019-05-28T09:59:41.040Z,0.90
2019-05-28T10:02:00.133Z,1.20
2019-05-28T10:04:45.678Z,1.20
2019-05-28T10:07:00.402Z,1.13
2019-05-28T10:09:29.574Z,0.80
2019-05-28T10:11:58.890Z,1.13
2019-05-28T10:14:28.125Z,1.00
2019-05-28T10:16:57.390Z,1.00
2019-05-28T10:19:26.629Z,0.80
2019-05-28T10:21:55.978Z,0.90
2019-05-28T10:24:25.195Z,0.97
2019-05-28T10:26:54.453Z,0.80
2019-05-28T10:29:23.681Z,1.10
2019-05-28T10:31:52.866Z,1.00
2019-05-28T10:34:22.067Z,0.90
2019-05-28T10:36:51.322Z,0.93
2019-05-28T10:39:20.509Z,1.10
2019-05-28T10:41:49.708Z,1.10
2019-05-28T10:44:18.913Z,0.80
2019-05-28T10:46:48.150Z,0.80
2019-05-28T10:49:17.404Z,0.90
2019-05-28T10:51:46.623Z,1.10
2019-05-28T10:54:15.802Z,1.10
2019-05-28T10:56:45.073Z,1.00
2019-05-28T10:59:14.272Z,1.60
2019-05-28T11:01:43.506Z,1.10
2019-05-28T11:04:12.716Z,1.10
2019-05-28T11:06:51.547Z,1.50
2019-05-28T11:09:12.995Z,1.17
2019-05-28T11:11:42.267Z,1.40
2019-05-28T11:14:11.571Z,1.50
2019-05-28T11:16:40.885Z,1.50
2019-05-28T11:19:10.085Z,1.10
2019-05-28T11:21:39.298Z,1.10
2019-05-28T11:24:08.469Z,1.40
2019-05-28T11:26:37.660Z,1.30
2019-05-28T11:29:06.884Z,1.07
2019-05-28T11:31:36.090Z,1.30
2019-05-28T11:34:05.650Z,1.43
2019-05-28T11:36:34.846Z,0.90
2019-05-28T11:39:06.383Z,1.40
2019-05-28T11:41:42.052Z,1.00
2019-05-28T11:44:06.902Z,1.23
2019-05-28T11:46:36.217Z,1.43
2019-05-28T11:49:05.591Z,1.23
2019-05-28T11:51:34.777Z,1.30
2019-05-28T11:54:04.103Z,0.90
2019-05-28T11:56:33.245Z,0.70
2019-05-28T11:59:02.477Z,0.63
2019-05-28T12:01:35.130Z,0.80
2019-05-28T12:04:02.624Z,0.83
2019-05-28T12:06:37.941Z,1.10
2019-05-28T12:09:02.921Z,0.90
2019-05-28T12:11:32.264Z,0.73
2019-05-28T12:14:01.581Z,1.00
2019-05-28T12:16:30.769Z,1.00
2019-05-28T12:19:00.033Z,0.80
2019-05-28T12:21:29.208Z,0.93
2019-05-28T12:23:58.472Z,1.20
2019-05-28T12:26:27.690Z,1.20
2019-05-28T12:28:56.962Z,0.88
2019-05-28T12:31:26.394Z,1.20
2019-05-28T12:33:55.634Z,0.93
2019-05-28T12:36:24.799Z,1.30
2019-05-28T12:38:54.859Z,1.30
2019-05-28T12:41:24.078Z,1.00
2019-05-28T12:43:53.278Z,1.10
2019-05-28T12:46:22.728Z,1.10
2019-05-28T12:48:51.987Z,1.10
2019-05-28T12:51:21.177Z,1.17
2019-05-28T12:53:51.509Z,0.90
2019-05-28T12:56:21.082Z,1.27
2019-05-28T12:58:50.405Z,0.90
2019-05-28T13:01:19.673Z,1.10
2019-05-28T13:03:51.875Z,1.30
2019-05-28T13:06:20.136Z,1.25
2019-05-28T13:08:49.324Z,1.30
2019-05-28T13:11:18.597Z,1.50
2019-05-28T13:13:47.799Z,1.17
2019-05-28T13:16:17.077Z,1.10
2019-05-28T13:18:46.292Z,1.32
2019-05-28T13:21:15.535Z,1.32
2019-05-28T13:23:44.771Z,1.30
2019-05-28T13:26:14.835Z,1.20
2019-05-28T13:28:44.131Z,1.30
2019-05-28T13:31:13.412Z,1.27
2019-05-28T13:33:42.654Z,1.30
2019-05-28T13:36:11.912Z,1.40
2019-05-28T13:38:42.826Z,1.30
2019-05-28T13:41:12.245Z,1.30
2019-05-28T13:43:41.474Z,1.27
2019-05-28T13:46:10.731Z,1.65
2019-05-28T13:48:40.037Z,1.50
2019-05-28T13:51:09.265Z,1.50
2019-05-28T13:53:38.454Z,1.30
2019-05-28T13:56:07.718Z,1.12
2019-05-28T13:58:36.993Z,1.10
2019-05-28T14:01:06.261Z,0.90
2019-05-28T14:03:35.465Z,1.10
2019-05-28T14:06:04.771Z,1.30
2019-05-28T14:08:45.470Z,1.00
2019-05-28T14:11:04.954Z,1.10
2019-05-28T14:13:34.333Z,1.23
2019-05-28T14:16:04.210Z,1.45
2019-05-28T14:18:33.460Z,1.10
2019-05-28T14:21:02.689Z,1.30
2019-05-28T14:23:31.921Z,1.17
2019-05-28T14:26:01.173Z,1.50
2019-05-28T14:28:30.547Z,1.10
2019-05-28T14:31:00.700Z,1.22
2019-05-28T14:33:29.972Z,1.20
2019-05-28T14:35:59.242Z,1.85
2019-05-28T14:38:28.465Z,1.00
2019-05-28T14:40:57.762Z,1.10
2019-05-28T14:43:27.017Z,1.35
2019-05-28T14:45:56.246Z,1.30
2019-05-28T14:48:25.466Z,1.20
2019-05-28T14:50:54.965Z,1.00
2019-05-28T14:53:24.203Z,1.37
2019-05-28T14:55:53.626Z,1.10
2019-05-28T14:58:22.973Z,1.00
2019-05-28T15:00:52.250Z,1.00
2019-05-28T15:03:21.425Z,0.88
2019-05-28T15:05:50.664Z,1.00
2019-05-28T15:08:19.966Z,0.90
2019-05-28T15:10:49.175Z,1.17
2019-05-28T15:13:18.405Z,1.05
2019-05-28T15:15:47.688Z,1.27
2019-05-28T15:18:16.889Z,0.90
2019-05-28T15:20:46.101Z,1.00
2019-05-28T15:23:15.311Z,1.03
2019-05-28T15:25:44.482Z,0.93
2019-05-28T15:28:13.722Z,1.10
2019-05-28T15:30:42.954Z,1.00
2019-05-28T15:33:12.216Z,1.17
2019-05-28T15:35:41.448Z,1.50
2019-05-28T15:38:10.603Z,1.45
2019-05-28T15:40:39.802Z,2.33
2019-05-28T15:43:09.022Z,2.70
2019-05-28T15:45:38.250Z,1.50
2019-05-28T15:48:07.507Z,1.50
2019-05-28T15:50:36.758Z,1.70
2019-05-28T15:53:05.968Z,1.60
2019-05-28T15:55:35.184Z,1.80
2019-05-28T15:58:04.389Z,2.35
2019-05-28T16:00:33.671Z,1.20
2019-05-28T16:03:02.886Z,1.50
2019-05-28T16:05:32.128Z,1.40
2019-05-28T16:08:01.293Z,1.17
2019-05-28T16:10:30.506Z,1.37
2019-05-28T16:12:59.782Z,1.22
2019-05-28T16:15:29.030Z,1.30
2019-05-28T16:17:58.325Z,1.80
2019-05-28T16:20:27.671Z,1.60
2019-05-28T16:22:56.928Z,1.55
2019-05-28T16:25:26.173Z,1.82
2019-05-28T16:27:55.575Z,1.60
2019-05-28T16:30:25.149Z,1.62
2019-05-28T16:32:54.384Z,1.40
2019-05-28T16:35:23.702Z,1.65
2019-05-28T16:37:52.959Z,1.47
2019-05-28T16:40:22.294Z,1.32
2019-05-28T16:42:51.558Z,1.40
2019-05-28T16:45:21.178Z,1.35
2019-05-28T16:47:50.528Z,1.40
2019-05-28T16:50:19.970Z,1.47
2019-05-28T16:52:49.162Z,1.67
2019-05-28T16:55:18.539Z,1.30
2019-05-28T16:57:47.784Z,1.45
2019-05-28T17:00:18.529Z,2.27
2019-05-28T17:02:47.817Z,1.37
2019-05-28T17:05:17.708Z,1.22
2019-05-28T17:07:46.964Z,1.37
2019-05-28T17:10:31.552Z,1.05
2019-05-28T17:12:47.412Z,1.25
2019-05-28T17:15:17.227Z,1.17
2019-05-28T17:17:46.830Z,1.10
2019-05-28T17:20:17.116Z,1.02
2019-05-28T17:22:46.445Z,1.10
2019-05-28T17:25:15.992Z,1.40
2019-05-28T17:27:45.242Z,1.20
2019-05-28T17:30:19.161Z,1.00
2019-05-28T17:32:46.409Z,1.00
2019-05-28T17:35:15.945Z,1.10
2019-05-28T17:37:45.172Z,0.90
2019-05-28T17:40:14.480Z,1.10
2019-05-28T17:42:43.752Z,0.90
2019-05-28T17:45:13.412Z,0.70
2019-05-28T17:47:44.369Z,0.95
2019-05-28T17:50:13.950Z,1.10
2019-05-28T17:52:43.318Z,1.20
2019-05-28T17:55:12.778Z,1.00
2019-05-28T17:57:41.991Z,1.10
2019-05-28T18:00:11.481Z,1.10
2019-05-28T18:02:41.153Z,1.07
2019-05-28T18:05:10.709Z,1.05
2019-05-28T18:07:39.924Z,1.17
2019-05-28T18:10:10.428Z,0.82
2019-05-28T18:12:39.729Z,1.30
2019-05-28T18:15:09.419Z,0.85
2019-05-28T18:17:38.922Z,0.70
2019-05-28T18:20:09.229Z,0.90
2019-05-28T18:22:38.482Z,0.90
2019-05-28T18:25:07.961Z,0.75
2019-05-28T18:27:37.347Z,0.78
2019-05-28T18:30:06.974Z,0.60
2019-05-28T18:32:36.399Z,1.05
2019-05-28T18:35:06.444Z,0.60
2019-05-28T18:37:35.792Z,0.70
2019-05-28T18:40:06.227Z,0.90
2019-05-28T18:42:35.489Z,0.68
2019-05-28T18:45:05.208Z,0.80
2019-05-28T18:47:34.587Z,0.80
2019-05-28T18:50:04.303Z,1.25
2019-05-28T18:52:33.510Z,1.12
2019-05-28T18:55:03.995Z,1.10
2019-05-28T18:57:33.656Z,1.00
2019-05-28T19:00:02.936Z,1.70
2019-05-28T19:02:32.295Z,1.80
2019-05-28T19:05:01.539Z,1.30
2019-05-28T19:07:30.759Z,1.00
2019-05-28T19:10:00.068Z,1.07
2019-05-28T19:12:29.286Z,1.00
2019-05-28T19:14:58.553Z,1.42
2019-05-28T19:17:27.808Z,1.07
2019-05-28T19:19:57.069Z,0.88
2019-05-28T19:22:26.290Z,0.75
2019-05-28T19:24:57.383Z,0.82
2019-05-28T19:27:26.858Z,0.70
2019-05-28T19:29:56.331Z,0.90
2019-05-28T19:32:25.562Z,0.80
2019-05-28T19:34:55.044Z,0.80
2019-05-28T19:37:24.463Z,0.90
2019-05-28T19:39:53.932Z,0.80
2019-05-28T19:42:23.229Z,0.73
2019-05-28T19:44:52.565Z,0.80
2019-05-28T19:47:21.866Z,0.95
2019-05-28T19:49:51.162Z,0.90
2019-05-28T19:52:20.414Z,1.17
2019-05-28T19:54:49.626Z,0.80
2019-05-28T19:57:18.874Z,0.80
2019-05-28T19:59:48.176Z,0.90
2019-05-28T20:02:17.461Z,1.00
2019-05-28T20:04:46.684Z,1.10
2019-05-28T20:07:15.883Z,0.95
2019-05-28T20:09:45.224Z,1.12
2019-05-28T20:12:14.525Z,1.30
2019-05-28T20:14:43.873Z,0.90
2019-05-28T20:17:13.402Z,0.72
2019-05-28T20:19:42.695Z,0.78
2019-05-28T20:22:12.252Z,0.80
2019-05-28T20:24:41.562Z,0.72
2019-05-28T20:27:10.793Z,0.80
2019-05-28T20:29:40.065Z,0.90
2019-05-28T20:32:09.507Z,0.80
2019-05-28T20:34:38.928Z,0.72
2019-05-28T20:37:08.229Z,0.80
2019-05-28T20:39:37.489Z,0.90
2019-05-28T20:42:06.784Z,0.78
2019-05-28T20:44:36.025Z,0.90
2019-05-28T20:47:06.839Z,1.10
2019-05-28T20:49:36.333Z,0.90
2019-05-28T20:52:05.638Z,0.90
2019-05-28T20:54:34.816Z,1.10
2019-05-28T20:57:04.031Z,0.80
2019-05-28T20:59:33.361Z,1.00
2019-05-28T21:02:02.635Z,0.85
2019-05-28T21:04:31.888Z,1.20
2019-05-28T21:07:01.159Z,0.98
2019-05-28T21:09:30.380Z,0.93
2019-05-28T21:11:59.611Z,0.90
2019-05-28T21:14:28.878Z,1.10
2019-05-28T21:16:59.191Z,0.80
2019-05-28T21:19:28.480Z,1.00
2019-05-28T21:21:57.894Z,0.80
2019-05-28T21:24:27.173Z,0.70
2019-05-28T21:26:56.525Z,0.90
2019-05-28T21:29:25.798Z,1.10
2019-05-28T21:31:55.039Z,1.27
2019-05-28T21:34:24.245Z,1.50
2019-05-28T21:36:53.440Z,1.45
2019-05-28T21:39:22.711Z,1.30
2019-05-28T21:41:51.950Z,1.50
2019-05-28T21:44:21.137Z,1.32
2019-05-28T21:46:50.415Z,1.00
2019-05-28T21:49:19.698Z,1.00
2019-05-28T21:51:48.927Z,1.30
2019-05-28T21:54:18.138Z,1.27
2019-05-28T21:56:47.361Z,1.20
2019-05-28T21:59:16.615Z,1.60
2019-05-28T22:01:45.956Z,1.72
2019-05-28T22:04:15.175Z,1.47
2019-05-28T22:06:44.689Z,1.00
2019-05-28T22:09:13.895Z,1.00
2019-05-28T22:11:43.308Z,0.93
2019-05-28T22:14:12.890Z,1.03
2019-05-28T22:16:42.041Z,1.35
2019-05-28T22:19:11.320Z,1.70
2019-05-28T22:21:40.518Z,1.75
2019-05-28T22:24:09.705Z,1.42
2019-05-28T22:26:38.970Z,1.70
2019-05-28T22:29:08.148Z,1.67
2019-05-28T22:31:37.386Z,1.12
2019-05-28T22:34:07.304Z,1.30
2019-05-28T22:36:36.680Z,1.27
2019-05-28T22:39:08.695Z,0.80
2019-05-28T22:41:39.495Z,0.90
2019-05-28T22:44:08.902Z,0.80
2019-05-28T22:46:38.356Z,0.90
2019-05-28T22:49:07.650Z,0.90
2019-05-28T22:51:36.899Z,0.70
2019-05-28T22:54:06.355Z,0.75
2019-05-28T22:56:35.600Z,0.85
2019-05-28T22:59:04.766Z,1.00
2019-05-28T23:01:33.984Z,1.30
2019-05-28T23:04:03.191Z,1.00
2019-05-28T23:06:32.360Z,1.10
2019-05-28T23:09:01.526Z,1.02
2019-05-28T23:11:30.728Z,0.90
2019-05-28T23:13:59.939Z,1.00
2019-05-28T23:16:29.150Z,0.98
2019-05-28T23:18:58.294Z,1.00
2019-05-28T23:21:27.564Z,1.12
2019-05-28T23:23:56.827Z,1.20
2019-05-28T23:26:26.300Z,0.90
2019-05-28T23:28:55.496Z,1.15
2019-05-28T23:31:24.712Z,0.90
2019-05-28T23:33:53.891Z,1.10
2019-05-28T23:36:23.118Z,1.02
2019-05-28T23:38:52.398Z,1.30
2019-05-28T23:41:21.569Z,1.00
2019-05-28T23:44:01.409Z,1.20
2019-05-28T23:46:21.687Z,0.90
2019-05-28T23:48:50.964Z,1.00
2019-05-28T23:51:20.152Z,0.82
2019-05-28T23:53:49.351Z,0.80
2019-05-28T23:56:18.581Z,0.90
2019-05-28T23:58:47.800Z,1.10
